createdAt,value
2022-12-01T00:01:45.832Z,18.10
2022-12-01T00:04:14.476Z,17.90
2022-12-01T00:06:42.688Z,17.13
2022-12-01T00:09:28.541Z,17.60
2022-12-01T00:11:58.904Z,18.73
2022-12-01T00:14:27.363Z,18.63
2022-12-01T00:16:56.591Z,18.77
2022-12-01T00:19:30.306Z,19.07
2022-12-01T00:22:02.127Z,19.87
2022-12-01T00:24:32.974Z,18.57
2022-12-01T00:27:02.942Z,19.07
2022-12-01T00:29:31.794Z,18.93
2022-12-01T00:32:00.545Z,20.40
2022-12-01T00:34:30.535Z,19.17
2022-12-01T00:36:59.764Z,19.17
2022-12-01T00:39:28.355Z,19.43
2022-12-01T00:41:57.085Z,20.37
2022-12-01T00:44:27.480Z,19.50
2022-12-01T00:46:55.935Z,19.70
2022-12-01T00:49:24.225Z,19.77
2022-12-01T00:51:52.801Z,20.43
2022-12-01T00:54:22.000Z,21.10
2022-12-01T00:56:52.613Z,20.37
2022-12-01T00:59:21.063Z,22.07
2022-12-01T01:01:51.528Z,20.47
2022-12-01T01:04:22.170Z,20.77
2022-12-01T01:06:50.577Z,19.67
2022-12-01T01:09:19.452Z,20.20
2022-12-01T01:11:50.357Z,19.33
2022-12-01T01:14:18.910Z,20.10
2022-12-01T01:16:47.639Z,19.93
2022-12-01T01:19:18.353Z,20.20
2022-12-01T01:21:47.945Z,20.03
2022-12-01T01:24:16.618Z,18.87
2022-12-01T01:26:47.272Z,19.73
2022-12-01T01:29:15.658Z,18.70
2022-12-01T01:31:43.903Z,19.93
2022-12-01T01:34:13.063Z,21.00
2022-12-01T01:36:44.338Z,20.50
2022-12-01T01:39:13.143Z,21.03
2022-12-01T01:41:41.995Z,21.37
2022-12-01T01:44:43.073Z,20.27
2022-12-01T01:47:11.730Z,21.20
2022-12-01T01:49:40.840Z,20.77
2022-12-01T01:52:15.528Z,21.03
2022-12-01T01:54:48.493Z,21.47
2022-12-01T01:57:22.040Z,20.10
2022-12-01T01:59:54.488Z,21.93
2022-12-01T02:02:23.029Z,21.03
2022-12-01T02:04:56.132Z,21.13
2022-12-01T02:07:27.309Z,21.20
2022-12-01T02:09:57.582Z,20.63
2022-12-01T02:12:55.072Z,20.13
2022-12-01T02:15:35.967Z,21.47
2022-12-01T02:18:15.575Z,20.23
2022-12-01T02:21:15.411Z,22.90
2022-12-01T02:24:13.391Z,21.30
2022-12-01T02:26:51.632Z,21.07
2022-12-01T02:29:43.291Z,20.67
2022-12-01T02:32:19.609Z,22.00
2022-12-01T02:34:57.945Z,21.63
2022-12-01T02:37:34.195Z,22.23
2022-12-01T02:40:11.056Z,21.67
2022-12-01T02:42:52.013Z,23.03
2022-12-01T02:45:26.696Z,22.43
2022-12-01T02:48:01.264Z,21.77
2022-12-01T02:50:32.557Z,22.47
2022-12-01T02:53:09.375Z,23.73
2022-12-01T02:55:38.843Z,22.90
2022-12-01T02:58:17.042Z,22.53
2022-12-01T03:01:08.997Z,23.17
2022-12-01T03:04:01.242Z,24.00
2022-12-01T03:06:42.949Z,24.03
2022-12-01T03:09:21.980Z,23.73
2022-12-01T03:12:04.466Z,24.37
2022-12-01T03:14:41.178Z,23.87
2022-12-01T03:17:13.647Z,25.77
2022-12-01T03:19:49.266Z,24.20
2022-12-01T03:22:25.962Z,25.03
2022-12-01T03:24:57.960Z,25.10
2022-12-01T03:27:35.054Z,24.83
2022-12-01T03:30:04.977Z,24.37
2022-12-01T03:32:40.838Z,25.30
2022-12-01T03:35:21.279Z,27.60
2022-12-01T03:38:02.795Z,25.57
2022-12-01T03:40:34.504Z,27.27
2022-12-01T03:43:07.603Z,26.77
2022-12-01T03:45:48.292Z,25.77
2022-12-01T03:48:16.644Z,26.47
2022-12-01T03:50:55.877Z,26.00
2022-12-01T03:53:29.345Z,26.63
2022-12-01T03:56:04.152Z,27.63
2022-12-01T03:58:37.524Z,25.70
2022-12-01T04:01:06.706Z,27.47
2022-12-01T04:03:35.670Z,26.70
2022-12-01T04:06:06.391Z,27.53
2022-12-01T04:08:37.767Z,24.83
2022-12-01T04:11:32.186Z,26.33
2022-12-01T04:14:02.129Z,26.77
2022-12-01T04:16:30.303Z,26.17
2022-12-01T04:18:58.835Z,26.23
2022-12-01T04:21:29.032Z,26.57
2022-12-01T04:24:02.819Z,26.00
2022-12-01T04:26:34.342Z,26.43
2022-12-01T04:29:04.662Z,25.77
2022-12-01T04:31:33.402Z,26.03
2022-12-01T04:34:03.682Z,26.70
2022-12-01T04:36:35.439Z,27.53
2022-12-01T04:39:04.581Z,26.73
2022-12-01T04:41:33.311Z,25.40
2022-12-01T04:44:01.973Z,25.30
2022-12-01T04:46:30.587Z,25.47
2022-12-01T04:48:58.976Z,26.13
2022-12-01T04:51:29.440Z,24.37
2022-12-01T04:54:00.340Z,26.33
2022-12-01T04:56:31.244Z,26.23
2022-12-01T04:59:00.193Z,27.77
2022-12-01T05:01:28.391Z,26.40
2022-12-01T05:03:57.591Z,25.10
2022-12-01T05:06:28.064Z,26.60
2022-12-01T05:08:59.879Z,25.30
2022-12-01T05:11:30.418Z,25.87
2022-12-01T05:13:59.263Z,26.43
2022-12-01T05:16:29.462Z,26.30
2022-12-01T05:19:13.057Z,24.43
2022-12-01T05:21:41.792Z,25.97
2022-12-01T05:24:13.642Z,24.63
2022-12-01T05:26:42.703Z,23.90
2022-12-01T05:29:11.821Z,26.07
2022-12-01T05:31:40.941Z,25.43
2022-12-01T05:34:12.202Z,25.50
2022-12-01T05:36:42.739Z,25.93
2022-12-01T05:39:12.822Z,25.13
2022-12-01T05:41:41.472Z,26.13
2022-12-01T05:44:09.751Z,24.83
2022-12-01T05:46:38.180Z,25.50
2022-12-01T05:49:07.535Z,25.40
2022-12-01T05:51:36.061Z,27.80
2022-12-01T05:54:04.591Z,25.23
2022-12-01T05:56:35.672Z,26.13
2022-12-01T05:59:04.995Z,26.63
2022-12-01T06:01:35.995Z,26.53
2022-12-01T06:04:05.114Z,25.47
2022-12-01T06:06:33.668Z,26.87
2022-12-01T06:09:06.379Z,25.07
2022-12-01T06:11:38.129Z,25.23
2022-12-01T06:14:08.638Z,24.30
2022-12-01T06:16:37.482Z,24.77
2022-12-01T06:19:06.063Z,24.67
2022-12-01T06:21:34.233Z,23.80
2022-12-01T06:24:02.839Z,24.00
2022-12-01T06:26:32.319Z,23.27
2022-12-01T06:29:02.185Z,23.80
2022-12-01T06:31:30.769Z,24.40
2022-12-01T06:33:58.978Z,23.70
2022-12-01T06:36:27.543Z,23.97
2022-12-01T06:38:55.670Z,23.70
2022-12-01T06:41:24.072Z,23.80
2022-12-01T06:43:52.313Z,24.57
2022-12-01T06:46:22.580Z,23.50
2022-12-01T06:48:51.046Z,22.67
2022-12-01T06:51:19.460Z,23.23
2022-12-01T06:53:48.125Z,22.33
2022-12-01T06:56:19.370Z,22.53
2022-12-01T06:58:47.615Z,22.00
2022-12-01T07:01:17.536Z,22.07
2022-12-01T07:03:50.817Z,23.97
2022-12-01T07:06:20.227Z,21.30
2022-12-01T07:08:50.357Z,22.30
2022-12-01T07:11:18.828Z,22.87
2022-12-01T07:13:46.993Z,22.40
2022-12-01T07:16:15.767Z,22.73
2022-12-01T07:18:45.271Z,20.97
2022-12-01T07:21:18.539Z,20.17
2022-12-01T07:23:48.393Z,21.03
2022-12-01T07:26:18.831Z,19.50
2022-12-01T07:28:49.773Z,20.53
2022-12-01T07:31:19.925Z,19.13
2022-12-01T07:33:48.381Z,19.63
2022-12-01T07:36:22.185Z,19.03
2022-12-01T07:38:50.954Z,19.10
2022-12-01T07:41:21.494Z,19.33
2022-12-01T07:43:50.530Z,17.80
2022-12-01T07:46:23.638Z,18.30
2022-12-01T07:48:53.320Z,18.57
2022-12-01T07:51:26.476Z,19.37
2022-12-01T07:53:56.971Z,18.13
2022-12-01T07:56:25.760Z,18.33
2022-12-01T07:58:56.477Z,18.03
2022-12-01T08:01:26.500Z,17.73
2022-12-01T08:04:00.230Z,16.93
2022-12-01T08:06:31.699Z,17.00
2022-12-01T08:09:00.365Z,16.33
2022-12-01T08:11:30.809Z,17.37
2022-12-01T08:14:02.362Z,18.03
2022-12-01T08:16:32.475Z,18.20
2022-12-01T08:19:00.782Z,18.07
2022-12-01T08:21:30.570Z,16.97
2022-12-01T08:23:59.410Z,15.93
2022-12-01T08:26:28.718Z,16.60
2022-12-01T08:28:59.533Z,17.73
2022-12-01T08:31:29.415Z,15.30
2022-12-01T08:34:00.209Z,14.87
2022-12-01T08:36:30.080Z,16.17
2022-12-01T08:38:58.698Z,16.07
2022-12-01T08:41:28.733Z,15.57
2022-12-01T08:43:59.580Z,15.07
2022-12-01T08:46:34.326Z,16.27
2022-12-01T08:49:02.846Z,15.80
2022-12-01T08:51:33.115Z,15.37
2022-12-01T08:54:02.227Z,16.37
2022-12-01T08:56:32.676Z,16.10
2022-12-01T08:59:03.740Z,15.93
2022-12-01T09:01:33.124Z,15.43
2022-12-01T09:04:09.233Z,16.10
2022-12-01T09:06:43.846Z,14.63
2022-12-01T09:09:15.041Z,15.53
2022-12-01T09:11:45.000Z,15.67
2022-12-01T09:14:14.213Z,14.97
2022-12-01T09:16:44.338Z,14.73
2022-12-01T09:19:13.516Z,14.77
2022-12-01T09:21:45.403Z,14.97
2022-12-01T09:24:17.876Z,15.70
2022-12-01T09:26:47.385Z,15.87
2022-12-01T09:29:17.602Z,14.63
2022-12-01T09:31:46.478Z,16.13
2022-12-01T09:34:20.970Z,19.10
2022-12-01T09:36:51.340Z,16.33
2022-12-01T09:39:23.564Z,15.57
2022-12-01T09:41:55.705Z,16.30
2022-12-01T09:44:34.467Z,16.70
2022-12-01T09:47:11.540Z,17.33
2022-12-01T09:49:47.825Z,17.67
2022-12-01T09:52:22.295Z,17.50
2022-12-01T09:54:51.432Z,16.37
2022-12-01T09:57:29.726Z,15.07
2022-12-01T09:59:59.981Z,18.23
2022-12-01T10:02:35.934Z,16.53
2022-12-01T10:05:06.926Z,15.87
2022-12-01T10:07:41.704Z,17.20
2022-12-01T10:10:16.346Z,21.33
2022-12-01T10:12:48.140Z,20.23
2022-12-01T10:15:26.227Z,17.90
2022-12-01T10:18:04.572Z,17.63
2022-12-01T10:20:42.577Z,17.23
2022-12-01T10:23:36.641Z,16.60
2022-12-01T10:26:14.870Z,17.97
2022-12-01T10:28:59.805Z,16.90
2022-12-01T10:31:36.685Z,16.90
2022-12-01T10:34:11.835Z,16.40
2022-12-01T10:36:40.485Z,16.57
2022-12-01T10:39:19.166Z,19.57
2022-12-01T10:41:51.093Z,17.57
2022-12-01T10:44:21.081Z,17.37
2022-12-01T10:46:54.600Z,16.43
2022-12-01T10:49:40.005Z,15.77
2022-12-01T10:52:09.521Z,15.97
2022-12-01T10:54:42.605Z,15.67
2022-12-01T10:57:18.356Z,15.37
2022-12-01T10:59:53.454Z,16.63
2022-12-01T11:02:24.313Z,16.00
2022-12-01T11:04:56.087Z,14.57
2022-12-01T11:07:28.465Z,15.77
2022-12-01T11:10:18.683Z,15.73
2022-12-01T11:12:55.928Z,16.60
2022-12-01T11:15:27.565Z,17.27
2022-12-01T11:18:01.507Z,15.97
2022-12-01T11:20:34.181Z,15.87
2022-12-01T11:23:39.334Z,15.00
2022-12-01T11:26:17.876Z,15.87
2022-12-01T11:28:54.735Z,15.77
2022-12-01T11:31:26.001Z,14.97
2022-12-01T11:33:56.327Z,14.17
2022-12-01T11:36:29.605Z,15.40
2022-12-01T11:39:03.198Z,15.23
2022-12-01T11:41:38.040Z,14.87
2022-12-01T11:44:35.612Z,14.23
2022-12-01T11:47:25.310Z,15.83
2022-12-01T11:49:58.138Z,15.40
2022-12-01T11:52:30.331Z,14.57
2022-12-01T11:55:05.753Z,15.73
2022-12-01T11:57:42.884Z,14.53
2022-12-01T12:00:15.437Z,13.77
2022-12-01T12:02:53.453Z,14.20
2022-12-01T12:06:01.460Z,14.97
2022-12-01T12:08:56.449Z,14.37
2022-12-01T12:11:33.443Z,14.17
2022-12-01T12:14:37.237Z,14.13
2022-12-01T12:17:26.131Z,14.40
2022-12-01T12:20:17.799Z,13.17
2022-12-01T12:22:57.849Z,14.50
2022-12-01T12:25:34.026Z,14.40
2022-12-01T12:28:17.215Z,15.40
2022-12-01T12:30:56.101Z,14.77
2022-12-01T12:33:56.467Z,14.03
2022-12-01T12:36:34.439Z,14.67
2022-12-01T12:39:18.558Z,14.17
2022-12-01T12:41:48.260Z,14.27
2022-12-01T12:44:37.750Z,13.67
2022-12-01T12:47:20.894Z,13.97
2022-12-01T12:50:00.262Z,13.83
2022-12-01T12:52:34.559Z,13.33
2022-12-01T12:55:13.849Z,14.53
2022-12-01T12:57:47.395Z,14.07
2022-12-01T13:00:20.796Z,14.80
2022-12-01T13:02:53.190Z,14.93
2022-12-01T13:05:28.304Z,15.23
2022-12-01T13:08:03.506Z,15.70
2022-12-01T13:10:38.775Z,15.40
2022-12-01T13:13:24.450Z,15.30
2022-12-01T13:15:55.921Z,15.43
2022-12-01T13:18:30.633Z,15.03
2022-12-01T13:21:03.685Z,14.50
2022-12-01T13:23:33.676Z,15.07
2022-12-01T13:26:07.179Z,15.17
2022-12-01T13:28:43.002Z,13.97
2022-12-01T13:31:14.170Z,14.57
2022-12-01T13:33:47.227Z,25.93
2022-12-01T13:39:11.904Z,30.77
2022-12-01T13:41:41.960Z,18.17
2022-12-01T13:44:24.204Z,15.63
2022-12-01T13:46:58.031Z,15.10
2022-12-01T13:49:39.967Z,16.60
2022-12-01T13:52:33.953Z,15.53
2022-12-01T13:55:33.611Z,20.27
2022-12-01T13:58:27.029Z,17.27
2022-12-01T14:00:55.655Z,17.40
2022-12-01T14:03:40.503Z,17.40
2022-12-01T14:06:21.212Z,16.03
2022-12-01T14:08:52.307Z,19.97
2022-12-01T14:11:24.034Z,15.63
2022-12-01T14:13:57.462Z,17.20
2022-12-01T14:16:26.582Z,15.60
2022-12-01T14:18:57.590Z,17.60
2022-12-01T14:21:48.652Z,17.23
2022-12-01T14:24:28.645Z,17.10
2022-12-01T14:26:57.137Z,16.23
2022-12-01T14:29:30.179Z,16.83
2022-12-01T14:32:27.122Z,17.27
2022-12-01T14:35:00.249Z,17.10
2022-12-01T14:37:37.499Z,17.87
2022-12-01T14:40:14.349Z,17.07
2022-12-01T14:43:02.748Z,16.80
2022-12-01T14:45:36.741Z,17.20
2022-12-01T14:48:07.728Z,18.23
2022-12-01T14:50:45.204Z,17.57
2022-12-01T14:53:22.862Z,18.47
2022-12-01T14:55:59.235Z,17.80
2022-12-01T14:58:30.917Z,18.20
2022-12-01T15:01:06.577Z,48.73
2022-12-01T15:03:41.579Z,20.13
2022-12-01T15:06:10.574Z,31.67
2022-12-01T15:08:43.411Z,28.13
2022-12-01T15:11:23.672Z,21.73
2022-12-01T15:13:56.147Z,21.33
2022-12-01T15:16:27.386Z,20.73
2022-12-01T15:18:55.793Z,25.10
2022-12-01T15:21:26.851Z,21.60
2022-12-01T15:23:59.487Z,21.60
2022-12-01T15:26:32.771Z,20.07
2022-12-01T15:29:24.245Z,18.20
2022-12-01T15:31:54.997Z,20.43
2022-12-01T15:34:28.638Z,19.50
2022-12-01T15:37:00.604Z,20.47
2022-12-01T15:39:35.422Z,19.37
2022-12-01T15:42:06.718Z,18.77
2022-12-01T15:44:37.074Z,21.30
2022-12-01T15:47:33.580Z,19.40
2022-12-01T15:50:01.889Z,20.73
2022-12-01T15:52:31.088Z,20.43
2022-12-01T15:55:03.882Z,19.67
2022-12-01T15:57:33.497Z,22.23
2022-12-01T16:00:02.535Z,22.00
2022-12-01T16:02:33.708Z,20.90
2022-12-01T16:05:04.867Z,22.00
2022-12-01T16:08:10.959Z,21.87
2022-12-01T16:10:31.618Z,22.93
2022-12-01T16:13:37.068Z,20.27
2022-12-01T16:16:32.405Z,24.17
2022-12-01T16:19:03.129Z,19.90
2022-12-01T16:21:35.304Z,21.77
2022-12-01T16:24:06.481Z,24.03
2022-12-01T16:26:35.979Z,28.13
2022-12-01T16:29:05.272Z,20.87
2022-12-01T16:31:43.302Z,20.87
2022-12-01T16:34:44.771Z,23.23
2022-12-01T16:37:13.863Z,25.50
2022-12-01T16:39:43.182Z,21.90
2022-12-01T16:42:15.565Z,26.33
2022-12-01T16:44:44.897Z,21.70
2022-12-01T16:47:19.503Z,20.07
2022-12-01T16:49:49.301Z,22.17
2022-12-01T16:55:08.330Z,21.43
2022-12-01T16:57:37.706Z,20.27
2022-12-01T17:00:07.812Z,22.37
2022-12-01T17:02:38.082Z,20.87
2022-12-01T17:05:07.253Z,22.53
2022-12-01T17:07:35.698Z,22.07
2022-12-01T17:10:04.834Z,22.80
2022-12-01T17:12:33.541Z,22.63
2022-12-01T17:15:01.740Z,20.90
2022-12-01T17:17:30.928Z,20.43
2022-12-01T17:20:01.172Z,21.73
2022-12-01T17:22:29.714Z,23.10
2022-12-01T17:25:01.127Z,23.20
2022-12-01T17:27:31.859Z,22.93
2022-12-01T17:30:02.291Z,24.17
2022-12-01T17:32:31.391Z,22.97
2022-12-01T17:35:01.380Z,22.27
2022-12-01T17:37:30.872Z,23.23
2022-12-01T17:40:02.211Z,22.80
2022-12-01T17:42:32.778Z,22.57
2022-12-01T17:45:01.733Z,22.40
2022-12-01T17:47:34.814Z,28.67
2022-12-01T17:50:05.656Z,61.43
2022-12-01T17:52:33.853Z,25.90
2022-12-01T17:55:03.797Z,23.97
2022-12-01T17:57:32.928Z,22.73
2022-12-01T18:00:02.120Z,22.20
2022-12-01T18:02:31.063Z,23.03
2022-12-01T18:04:59.647Z,22.90
2022-12-01T18:07:31.177Z,23.23
2022-12-01T18:09:59.549Z,23.70
2022-12-01T18:12:27.686Z,22.17
2022-12-01T18:14:55.862Z,23.80
2022-12-01T18:17:24.408Z,22.83
2022-12-01T18:19:52.654Z,25.80
2022-12-01T18:22:30.129Z,24.20
2022-12-01T18:24:59.816Z,25.23
2022-12-01T18:27:28.163Z,21.30
2022-12-01T18:29:56.934Z,22.73
2022-12-01T18:32:28.084Z,22.17
2022-12-01T18:34:58.417Z,25.80
2022-12-01T18:37:29.169Z,24.53
2022-12-01T18:39:57.966Z,24.23
2022-12-01T18:42:27.738Z,26.77
2022-12-01T18:44:56.278Z,23.73
2022-12-01T18:47:24.660Z,25.10
2022-12-01T18:49:52.908Z,27.87
2022-12-01T18:52:22.967Z,25.77
2022-12-01T18:54:51.541Z,25.73
2022-12-01T18:57:19.971Z,23.20
2022-12-01T18:59:50.849Z,25.33
2022-12-01T19:02:19.210Z,23.30
2022-12-01T19:04:50.451Z,25.20
2022-12-01T19:07:19.150Z,26.67
2022-12-01T19:09:47.564Z,24.53
2022-12-01T19:12:16.140Z,24.57
2022-12-01T19:14:44.307Z,25.03
2022-12-01T19:17:14.150Z,24.33
2022-12-01T19:19:42.876Z,23.87
2022-12-01T19:22:11.258Z,24.20
2022-12-01T19:24:39.740Z,26.23
2022-12-01T19:27:07.915Z,25.00
2022-12-01T19:29:36.353Z,24.70
2022-12-01T19:32:05.072Z,24.30
2022-12-01T19:34:37.532Z,24.93
2022-12-01T19:37:06.097Z,25.10
2022-12-01T19:39:34.813Z,25.70
2022-12-01T19:42:03.603Z,25.43
2022-12-01T19:44:32.421Z,25.10
2022-12-01T19:47:03.855Z,25.50
2022-12-01T19:49:32.095Z,26.03
2022-12-01T19:52:02.048Z,24.80
2022-12-01T19:54:33.149Z,24.43
2022-12-01T19:57:09.050Z,25.63
2022-12-01T19:59:37.633Z,24.80
2022-12-01T20:02:05.844Z,24.77
2022-12-01T20:04:34.045Z,24.97
2022-12-01T20:07:06.480Z,24.33
2022-12-01T20:09:35.194Z,25.33
2022-12-01T20:12:04.293Z,24.30
2022-12-01T20:14:32.730Z,24.63
2022-12-01T20:17:00.903Z,26.13
2022-12-01T20:19:30.387Z,24.57
2022-12-01T20:21:58.597Z,25.70
2022-12-01T20:24:28.564Z,24.80
2022-12-01T20:26:57.895Z,24.50
2022-12-01T20:29:30.562Z,24.87
2022-12-01T20:32:01.434Z,24.13
2022-12-01T20:34:35.169Z,25.17
2022-12-01T20:37:04.688Z,23.47
2022-12-01T20:39:38.041Z,24.80
2022-12-01T20:42:06.781Z,24.83
2022-12-01T20:44:35.284Z,26.03
2022-12-01T20:47:04.147Z,24.53
2022-12-01T20:49:33.344Z,25.77
2022-12-01T20:52:02.013Z,24.73
2022-12-01T20:54:31.293Z,23.93
2022-12-01T20:57:07.846Z,24.50
2022-12-01T20:59:36.927Z,24.63
2022-12-01T21:02:08.289Z,25.70
2022-12-01T21:04:37.808Z,23.57
2022-12-01T21:07:06.347Z,24.37
2022-12-01T21:09:34.482Z,24.20
2022-12-01T21:12:22.155Z,24.37
2022-12-01T21:14:58.419Z,23.87
2022-12-01T21:17:35.388Z,23.23
2022-12-01T21:20:18.447Z,23.20
2022-12-01T21:22:48.584Z,21.97
2022-12-01T21:25:21.105Z,21.27
2022-12-01T21:27:51.930Z,21.73
2022-12-01T21:30:25.982Z,22.67
2022-12-01T21:32:55.733Z,21.80
2022-12-01T21:35:26.211Z,21.43
2022-12-01T21:38:00.974Z,21.97
2022-12-01T21:40:30.202Z,21.73
2022-12-01T21:43:12.992Z,21.07
2022-12-01T21:45:41.572Z,21.40
2022-12-01T21:48:17.471Z,20.90
2022-12-01T21:50:49.392Z,20.43
2022-12-01T21:53:25.405Z,20.90
2022-12-01T21:55:58.096Z,19.47
2022-12-01T21:58:30.371Z,20.67
2022-12-01T22:01:00.345Z,19.70
2022-12-01T22:03:34.354Z,20.23
2022-12-01T22:06:28.773Z,19.03
2022-12-01T22:08:59.077Z,19.10
2022-12-01T22:11:30.144Z,19.73
2022-12-01T22:14:15.596Z,20.83
2022-12-01T22:16:47.211Z,20.63
2022-12-01T22:19:32.417Z,20.13
2022-12-01T22:22:18.436Z,19.87
2022-12-01T22:24:50.196Z,20.20
2022-12-01T22:27:30.152Z,20.47
2022-12-01T22:30:03.510Z,19.57
2022-12-01T22:32:38.018Z,20.40
2022-12-01T22:35:28.230Z,19.93
2022-12-01T22:38:01.798Z,20.27
2022-12-01T22:40:40.198Z,19.87
2022-12-01T22:43:25.164Z,19.53
2022-12-01T22:46:04.847Z,20.30
2022-12-01T22:48:37.562Z,20.13
2022-12-01T22:51:22.492Z,20.30
2022-12-01T22:53:51.611Z,20.93
2022-12-01T22:56:31.117Z,20.90
2022-12-01T22:58:59.909Z,20.30
2022-12-01T23:01:32.795Z,20.20
2022-12-01T23:04:17.115Z,20.33
2022-12-01T23:07:06.341Z,20.73
2022-12-01T23:09:37.978Z,21.30
2022-12-01T23:12:39.913Z,21.83
2022-12-01T23:15:23.649Z,21.00
2022-12-01T23:17:54.107Z,22.63
2022-12-01T23:20:34.929Z,22.27
2022-12-01T23:23:10.628Z,23.43
2022-12-01T23:25:38.929Z,22.97
2022-12-01T23:28:10.506Z,23.40
2022-12-01T23:30:41.797Z,22.60
2022-12-01T23:33:21.849Z,23.23
2022-12-01T23:35:57.991Z,24.17
2022-12-01T23:38:30.510Z,23.50
2022-12-01T23:41:06.182Z,25.00
2022-12-01T23:43:40.297Z,23.43
2022-12-01T23:46:13.726Z,23.67
2022-12-01T23:48:46.843Z,25.20
2022-12-01T23:51:20.057Z,22.90
2022-12-01T23:53:48.850Z,24.40
2022-12-01T23:56:24.810Z,23.33
2022-12-01T23:58:54.429Z,24.73
